sensor_id;sensor_type;location;lat;lon;timestamp;temperature;humidity
71396;DHT22;59888;55.814;37.132;2023-11-21T00:01:13;-4.87;51.83
71396;DHT22;59888;55.814;37.132;2023-11-21T00:03:39;-4.94;51.60
71396;DHT22;59888;55.814;37.132;2023-11-21T00:06:06;-4.99;51.88
71396;DHT22;59888;55.814;37.132;2023-11-21T00:08:36;-5.02;51.89
71396;DHT22;59888;55.814;37.132;2023-11-21T00:11:02;-5.05;51.99
71396;DHT22;59888;55.814;37.132;2023-11-21T00:13:33;-5.07;51.89
71396;DHT22;59888;55.814;37.132;2023-11-21T00:16:00;-5.13;52.00
71396;DHT22;59888;55.814;37.132;2023-11-21T00:18:27;-5.17;52.06
71396;DHT22;59888;55.814;37.132;2023-11-21T00:20:52;-5.23;52.20
71396;DHT22;59888;55.814;37.132;2023-11-21T00:23:19;-5.24;52.07
71396;DHT22;59888;55.814;37.132;2023-11-21T00:25:45;-5.25;52.30
71396;DHT22;59888;55.814;37.132;2023-11-21T00:28:11;-5.24;52.32
71396;DHT22;59888;55.814;37.132;2023-11-21T00:30:37;-5.27;52.28
71396;DHT22;59888;55.814;37.132;2023-11-21T00:33:08;-5.28;52.42
71396;DHT22;59888;55.814;37.132;2023-11-21T00:35:35;-5.31;52.41
71396;DHT22;59888;55.814;37.132;2023-11-21T00:38:01;-5.29;52.55
71396;DHT22;59888;55.814;37.132;2023-11-21T00:40:27;-5.32;52.43
71396;DHT22;59888;55.814;37.132;2023-11-21T00:42:54;-5.34;52.46
71396;DHT22;59888;55.814;37.132;2023-11-21T00:45:22;-5.40;52.56
71396;DHT22;59888;55.814;37.132;2023-11-21T00:47:47;-5.48;52.67
71396;DHT22;59888;55.814;37.132;2023-11-21T00:50:13;-5.50;52.81
71396;DHT22;59888;55.814;37.132;2023-11-21T00:52:41;-5.47;52.80
71396;DHT22;59888;55.814;37.132;2023-11-21T00:55:07;-5.50;52.73
71396;DHT22;59888;55.814;37.132;2023-11-21T00:57:35;-5.48;52.69
71396;DHT22;59888;55.814;37.132;2023-11-21T01:00:01;-5.55;52.74
71396;DHT22;59888;55.814;37.132;2023-11-21T01:02:30;-5.57;52.79
71396;DHT22;59888;55.814;37.132;2023-11-21T01:04:56;-5.58;52.64
71396;DHT22;59888;55.814;37.132;2023-11-21T01:07:22;-5.61;52.72
71396;DHT22;59888;55.814;37.132;2023-11-21T01:09:48;-5.64;52.82
71396;DHT22;59888;55.814;37.132;2023-11-21T01:12:14;-5.68;52.72
71396;DHT22;59888;55.814;37.132;2023-11-21T01:14:41;-5.77;52.77
71396;DHT22;59888;55.814;37.132;2023-11-21T01:17:07;-5.87;52.94
71396;DHT22;59888;55.814;37.132;2023-11-21T01:19:33;-5.87;53.04
71396;DHT22;59888;55.814;37.132;2023-11-21T01:22:00;-5.94;52.98
71396;DHT22;59888;55.814;37.132;2023-11-21T01:24:26;-6.02;53.10
71396;DHT22;59888;55.814;37.132;2023-11-21T01:26:52;-6.03;53.23
71396;DHT22;59888;55.814;37.132;2023-11-21T01:29:18;-6.02;53.25
71396;DHT22;59888;55.814;37.132;2023-11-21T01:31:49;-6.03;53.10
71396;DHT22;59888;55.814;37.132;2023-11-21T01:34:15;-6.08;53.19
71396;DHT22;59888;55.814;37.132;2023-11-21T01:36:41;-6.12;53.23
71396;DHT22;59888;55.814;37.132;2023-11-21T01:39:08;-6.19;53.29
71396;DHT22;59888;55.814;37.132;2023-11-21T01:41:39;-6.23;53.34
71396;DHT22;59888;55.814;37.132;2023-11-21T01:44:05;-6.27;53.38
71396;DHT22;59888;55.814;37.132;2023-11-21T01:46:33;-6.23;53.42
71396;DHT22;59888;55.814;37.132;2023-11-21T01:48:59;-6.28;53.31
71396;DHT22;59888;55.814;37.132;2023-11-21T01:51:25;-6.30;53.40
71396;DHT22;59888;55.814;37.132;2023-11-21T01:53:52;-6.31;53.31
71396;DHT22;59888;55.814;37.132;2023-11-21T01:56:18;-6.34;53.36
71396;DHT22;59888;55.814;37.132;2023-11-21T01:58:45;-6.38;53.34
71396;DHT22;59888;55.814;37.132;2023-11-21T02:01:31;-6.45;53.53
71396;DHT22;59888;55.814;37.132;2023-11-21T02:03:58;-6.47;53.55
71396;DHT22;59888;55.814;37.132;2023-11-21T02:06:24;-6.47;53.58
71396;DHT22;59888;55.814;37.132;2023-11-21T02:08:52;-6.49;53.56
71396;DHT22;59888;55.814;37.132;2023-11-21T02:11:19;-6.50;53.59
71396;DHT22;59888;55.814;37.132;2023-11-21T02:13:46;-6.50;53.58
71396;DHT22;59888;55.814;37.132;2023-11-21T02:16:15;-6.48;53.60
71396;DHT22;59888;55.814;37.132;2023-11-21T02:18:42;-6.49;53.67
71396;DHT22;59888;55.814;37.132;2023-11-21T02:21:09;-6.47;53.66
71396;DHT22;59888;55.814;37.132;2023-11-21T02:23:35;-6.47;53.69
71396;DHT22;59888;55.814;37.132;2023-11-21T02:26:02;-6.55;53.83
71396;DHT22;59888;55.814;37.132;2023-11-21T02:28:30;-6.56;54.00
71396;DHT22;59888;55.814;37.132;2023-11-21T02:30:56;-6.57;54.04
71396;DHT22;59888;55.814;37.132;2023-11-21T02:33:24;-6.52;54.06
71396;DHT22;59888;55.814;37.132;2023-11-21T02:35:50;-6.52;54.23
71396;DHT22;59888;55.814;37.132;2023-11-21T02:38:21;-6.51;54.45
71396;DHT22;59888;55.814;37.132;2023-11-21T02:40:48;-6.53;54.42
71396;DHT22;59888;55.814;37.132;2023-11-21T02:43:14;-6.56;54.44
71396;DHT22;59888;55.814;37.132;2023-11-21T02:45:40;-6.56;54.53
71396;DHT22;59888;55.814;37.132;2023-11-21T02:48:07;-6.57;54.46
71396;DHT22;59888;55.814;37.132;2023-11-21T02:50:33;-6.60;54.58
71396;DHT22;59888;55.814;37.132;2023-11-21T02:53:01;-6.63;54.80
71396;DHT22;59888;55.814;37.132;2023-11-21T02:55:28;-6.66;54.75
71396;DHT22;59888;55.814;37.132;2023-11-21T02:57:54;-6.66;54.68
71396;DHT22;59888;55.814;37.132;2023-11-21T03:00:22;-6.70;54.82
71396;DHT22;59888;55.814;37.132;2023-11-21T03:02:50;-6.71;54.77
71396;DHT22;59888;55.814;37.132;2023-11-21T03:05:16;-6.70;54.92
71396;DHT22;59888;55.814;37.132;2023-11-21T03:07:42;-6.67;54.87
71396;DHT22;59888;55.814;37.132;2023-11-21T03:10:09;-6.71;55.04
71396;DHT22;59888;55.814;37.132;2023-11-21T03:12:40;-6.67;55.23
71396;DHT22;59888;55.814;37.132;2023-11-21T03:15:08;-6.70;55.03
71396;DHT22;59888;55.814;37.132;2023-11-21T03:17:34;-6.71;55.07
71396;DHT22;59888;55.814;37.132;2023-11-21T03:20:00;-6.68;55.26
71396;DHT22;59888;55.814;37.132;2023-11-21T03:22:26;-6.67;55.32
71396;DHT22;59888;55.814;37.132;2023-11-21T03:24:53;-6.61;55.25
71396;DHT22;59888;55.814;37.132;2023-11-21T03:27:19;-6.57;55.13
71396;DHT22;59888;55.814;37.132;2023-11-21T03:29:45;-6.52;55.04
71396;DHT22;59888;55.814;37.132;2023-11-21T03:32:13;-6.46;54.97
71396;DHT22;59888;55.814;37.132;2023-11-21T03:34:57;-6.42;54.80
71396;DHT22;59888;55.814;37.132;2023-11-21T03:37:23;-6.38;54.70
71396;DHT22;59888;55.814;37.132;2023-11-21T03:39:51;-6.29;54.60
71396;DHT22;59888;55.814;37.132;2023-11-21T03:42:27;-6.21;54.42
71396;DHT22;59888;55.814;37.132;2023-11-21T03:44:54;-6.18;54.23
71396;DHT22;59888;55.814;37.132;2023-11-21T03:47:20;-6.13;54.18
71396;DHT22;59888;55.814;37.132;2023-11-21T03:49:46;-6.06;54.15
71396;DHT22;59888;55.814;37.132;2023-11-21T03:52:16;-6.02;53.96
71396;DHT22;59888;55.814;37.132;2023-11-21T03:54:42;-6.05;53.80
71396;DHT22;59888;55.814;37.132;2023-11-21T03:57:09;-6.09;53.65
71396;DHT22;59888;55.814;37.132;2023-11-21T03:59:36;-6.08;53.68
71396;DHT22;59888;55.814;37.132;2023-11-21T04:02:07;-6.11;53.65
71396;DHT22;59888;55.814;37.132;2023-11-21T04:04:34;-6.09;53.73
71396;DHT22;59888;55.814;37.132;2023-11-21T04:07:00;-6.14;53.65
71396;DHT22;59888;55.814;37.132;2023-11-21T04:09:26;-6.14;53.69
71396;DHT22;59888;55.814;37.132;2023-11-21T04:11:52;-6.14;53.68
71396;DHT22;59888;55.814;37.132;2023-11-21T04:14:19;-6.19;53.72
71396;DHT22;59888;55.814;37.132;2023-11-21T04:16:45;-6.26;53.58
71396;DHT22;59888;55.814;37.132;2023-11-21T04:19:11;-6.33;53.68
71396;DHT22;59888;55.814;37.132;2023-11-21T04:21:45;-6.33;53.85
71396;DHT22;59888;55.814;37.132;2023-11-21T04:24:46;-6.36;53.74
71396;DHT22;59888;55.814;37.132;2023-11-21T04:27:12;-6.39;53.80
71396;DHT22;59888;55.814;37.132;2023-11-21T04:29:42;-6.41;53.88
71396;DHT22;59888;55.814;37.132;2023-11-21T04:32:11;-6.39;53.94
71396;DHT22;59888;55.814;37.132;2023-11-21T04:34:38;-6.37;53.91
71396;DHT22;59888;55.814;37.132;2023-11-21T04:37:07;-6.36;53.87
71396;DHT22;59888;55.814;37.132;2023-11-21T04:39:37;-6.37;53.81
71396;DHT22;59888;55.814;37.132;2023-11-21T04:42:09;-6.41;53.85
71396;DHT22;59888;55.814;37.132;2023-11-21T04:44:35;-6.36;53.88
71396;DHT22;59888;55.814;37.132;2023-11-21T04:47:01;-6.38;53.81
71396;DHT22;59888;55.814;37.132;2023-11-21T04:49:28;-6.39;53.84
71396;DHT22;59888;55.814;37.132;2023-11-21T04:51:56;-6.42;53.89
71396;DHT22;59888;55.814;37.132;2023-11-21T04:54:22;-6.39;53.93
71396;DHT22;59888;55.814;37.132;2023-11-21T04:56:48;-6.36;53.86
71396;DHT22;59888;55.814;37.132;2023-11-21T04:59:14;-6.35;53.85
71396;DHT22;59888;55.814;37.132;2023-11-21T05:01:41;-6.34;53.89
71396;DHT22;59888;55.814;37.132;2023-11-21T05:04:06;-6.29;53.91
71396;DHT22;59888;55.814;37.132;2023-11-21T05:06:34;-6.28;53.82
71396;DHT22;59888;55.814;37.132;2023-11-21T05:09:00;-6.28;53.78
71396;DHT22;59888;55.814;37.132;2023-11-21T05:11:37;-6.28;53.85
71396;DHT22;59888;55.814;37.132;2023-11-21T05:14:04;-6.26;53.83
71396;DHT22;59888;55.814;37.132;2023-11-21T05:16:31;-6.24;53.77
71396;DHT22;59888;55.814;37.132;2023-11-21T05:18:57;-6.26;53.81
71396;DHT22;59888;55.814;37.132;2023-11-21T05:21:34;-6.24;53.81
71396;DHT22;59888;55.814;37.132;2023-11-21T05:24:01;-6.24;53.78
71396;DHT22;59888;55.814;37.132;2023-11-21T05:26:28;-6.24;53.85
71396;DHT22;59888;55.814;37.132;2023-11-21T05:28:54;-6.27;53.86
71396;DHT22;59888;55.814;37.132;2023-11-21T05:31:20;-6.29;53.89
71396;DHT22;59888;55.814;37.132;2023-11-21T05:33:47;-6.29;53.92
71396;DHT22;59888;55.814;37.132;2023-11-21T05:36:13;-6.28;53.96
71396;DHT22;59888;55.814;37.132;2023-11-21T05:38:39;-6.28;54.01
71396;DHT22;59888;55.814;37.132;2023-11-21T05:41:05;-6.32;54.03
71396;DHT22;59888;55.814;37.132;2023-11-21T05:43:32;-6.33;54.09
71396;DHT22;59888;55.814;37.132;2023-11-21T05:46:01;-6.34;54.15
71396;DHT22;59888;55.814;37.132;2023-11-21T05:48:27;-6.34;54.31
71396;DHT22;59888;55.814;37.132;2023-11-21T05:50:54;-6.34;54.22
71396;DHT22;59888;55.814;37.132;2023-11-21T05:53:20;-6.32;54.20
71396;DHT22;59888;55.814;37.132;2023-11-21T05:55:46;-6.28;54.33
71396;DHT22;59888;55.814;37.132;2023-11-21T05:58:12;-6.23;54.21
71396;DHT22;59888;55.814;37.132;2023-11-21T06:00:40;-6.23;54.22
71396;DHT22;59888;55.814;37.132;2023-11-21T06:03:07;-6.22;54.10
71396;DHT22;59888;55.814;37.132;2023-11-21T06:05:34;-6.23;54.42
71396;DHT22;59888;55.814;37.132;2023-11-21T06:08:00;-6.24;54.20
71396;DHT22;59888;55.814;37.132;2023-11-21T06:10:28;-6.28;54.42
71396;DHT22;59888;55.814;37.132;2023-11-21T06:12:55;-6.27;54.48
71396;DHT22;59888;55.814;37.132;2023-11-21T06:15:21;-6.23;54.38
71396;DHT22;59888;55.814;37.132;2023-11-21T06:17:51;-6.21;54.42
71396;DHT22;59888;55.814;37.132;2023-11-21T06:20:21;-6.22;54.30
71396;DHT22;59888;55.814;37.132;2023-11-21T06:23:08;-6.20;54.36
71396;DHT22;59888;55.814;37.132;2023-11-21T06:25:35;-6.24;54.43
71396;DHT22;59888;55.814;37.132;2023-11-21T06:28:02;-6.24;54.34
71396;DHT22;59888;55.814;37.132;2023-11-21T06:30:28;-6.21;54.39
71396;DHT22;59888;55.814;37.132;2023-11-21T06:32:54;-6.17;54.44
71396;DHT22;59888;55.814;37.132;2023-11-21T06:35:21;-6.12;54.30
71396;DHT22;59888;55.814;37.132;2023-11-21T06:37:49;-6.13;54.39
71396;DHT22;59888;55.814;37.132;2023-11-21T06:40:18;-6.15;54.26
71396;DHT22;59888;55.814;37.132;2023-11-21T06:42:44;-6.14;54.42
71396;DHT22;59888;55.814;37.132;2023-11-21T06:45:12;-6.12;54.37
71396;DHT22;59888;55.814;37.132;2023-11-21T06:47:39;-6.12;54.39
71396;DHT22;59888;55.814;37.132;2023-11-21T06:50:05;-6.12;54.50
71396;DHT22;59888;55.814;37.132;2023-11-21T06:52:34;-6.08;54.51
71396;DHT22;59888;55.814;37.132;2023-11-21T06:55:01;-6.05;54.59
71396;DHT22;59888;55.814;37.132;2023-11-21T06:57:31;-5.98;54.62
71396;DHT22;59888;55.814;37.132;2023-11-21T06:59:58;-5.90;54.52
71396;DHT22;59888;55.814;37.132;2023-11-21T07:02:24;-5.79;54.46
71396;DHT22;59888;55.814;37.132;2023-11-21T07:04:53;-5.82;54.40
71396;DHT22;59888;55.814;37.132;2023-11-21T07:07:19;-5.76;54.33
71396;DHT22;59888;55.814;37.132;2023-11-21T07:09:45;-5.72;54.32
71396;DHT22;59888;55.814;37.132;2023-11-21T07:12:11;-5.76;54.36
71396;DHT22;59888;55.814;37.132;2023-11-21T07:14:38;-5.79;54.43
71396;DHT22;59888;55.814;37.132;2023-11-21T07:17:17;-5.78;54.44
71396;DHT22;59888;55.814;37.132;2023-11-21T07:19:43;-5.75;54.48
71396;DHT22;59888;55.814;37.132;2023-11-21T07:22:09;-5.70;54.56
71396;DHT22;59888;55.814;37.132;2023-11-21T07:24:36;-5.62;54.41
71396;DHT22;59888;55.814;37.132;2023-11-21T07:27:02;-5.56;54.42
71396;DHT22;59888;55.814;37.132;2023-11-21T07:29:30;-5.56;54.31
71396;DHT22;59888;55.814;37.132;2023-11-21T07:32:07;-5.59;54.33
71396;DHT22;59888;55.814;37.132;2023-11-21T07:34:36;-5.58;54.36
71396;DHT22;59888;55.814;37.132;2023-11-21T07:37:02;-5.57;54.41
71396;DHT22;59888;55.814;37.132;2023-11-21T07:39:28;-5.55;54.37
71396;DHT22;59888;55.814;37.132;2023-11-21T07:41:55;-5.52;54.33
71396;DHT22;59888;55.814;37.132;2023-11-21T07:44:21;-5.48;54.31
71396;DHT22;59888;55.814;37.132;2023-11-21T07:46:48;-5.45;54.28
71396;DHT22;59888;55.814;37.132;2023-11-21T07:49:17;-5.46;54.33
71396;DHT22;59888;55.814;37.132;2023-11-21T07:51:46;-5.43;54.39
71396;DHT22;59888;55.814;37.132;2023-11-21T07:54:12;-5.28;54.42
71396;DHT22;59888;55.814;37.132;2023-11-21T07:56:38;-5.14;54.14
71396;DHT22;59888;55.814;37.132;2023-11-21T07:59:04;-5.13;54.07
71396;DHT22;59888;55.814;37.132;2023-11-21T08:01:30;-5.09;54.13
71396;DHT22;59888;55.814;37.132;2023-11-21T08:03:57;-5.07;54.04
71396;DHT22;59888;55.814;37.132;2023-11-21T08:06:27;-5.04;54.02
71396;DHT22;59888;55.814;37.132;2023-11-21T08:08:54;-5.01;54.00
71396;DHT22;59888;55.814;37.132;2023-11-21T08:11:20;-5.03;53.94
71396;DHT22;59888;55.814;37.132;2023-11-21T08:13:47;-4.97;53.91
71396;DHT22;59888;55.814;37.132;2023-11-21T08:16:13;-4.94;53.69
71396;DHT22;59888;55.814;37.132;2023-11-21T08:18:39;-4.97;53.75
71396;DHT22;59888;55.814;37.132;2023-11-21T08:21:06;-4.95;53.87
71396;DHT22;59888;55.814;37.132;2023-11-21T08:23:34;-4.88;54.01
71396;DHT22;59888;55.814;37.132;2023-11-21T08:26:01;-4.81;53.85
71396;DHT22;59888;55.814;37.132;2023-11-21T08:28:32;-4.73;53.73
71396;DHT22;59888;55.814;37.132;2023-11-21T08:30:58;-4.66;53.61
71396;DHT22;59888;55.814;37.132;2023-11-21T08:33:30;-4.53;53.49
71396;DHT22;59888;55.814;37.132;2023-11-21T08:35:56;-4.42;53.20
71396;DHT22;59888;55.814;37.132;2023-11-21T08:38:22;-4.32;52.75
71396;DHT22;59888;55.814;37.132;2023-11-21T08:40:49;-4.21;52.93
71396;DHT22;59888;55.814;37.132;2023-11-21T08:43:15;-4.05;52.78
71396;DHT22;59888;55.814;37.132;2023-11-21T08:45:42;-3.96;52.52
71396;DHT22;59888;55.814;37.132;2023-11-21T08:48:08;-3.90;52.24
71396;DHT22;59888;55.814;37.132;2023-11-21T08:50:34;-3.87;51.96
71396;DHT22;59888;55.814;37.132;2023-11-21T08:53:01;-3.92;52.15
71396;DHT22;59888;55.814;37.132;2023-11-21T08:55:27;-3.87;52.12
71396;DHT22;59888;55.814;37.132;2023-11-21T08:57:54;-3.89;51.72
71396;DHT22;59888;55.814;37.132;2023-11-21T09:00:20;-3.80;51.85
71396;DHT22;59888;55.814;37.132;2023-11-21T09:02:47;-3.79;51.15
71396;DHT22;59888;55.814;37.132;2023-11-21T09:05:14;-3.87;49.85
71396;DHT22;59888;55.814;37.132;2023-11-21T09:07:42;-3.92;49.96
71396;DHT22;59888;55.814;37.132;2023-11-21T09:10:11;-3.96;50.75
71396;DHT22;59888;55.814;37.132;2023-11-21T09:12:37;-4.01;50.70
71396;DHT22;59888;55.814;37.132;2023-11-21T09:15:05;-3.99;51.28
71396;DHT22;59888;55.814;37.132;2023-11-21T09:17:33;-3.97;51.40
71396;DHT22;59888;55.814;37.132;2023-11-21T09:20:00;-3.97;51.54
71396;DHT22;59888;55.814;37.132;2023-11-21T09:22:27;-4.00;51.49
71396;DHT22;59888;55.814;37.132;2023-11-21T09:24:56;-4.01;51.42
71396;DHT22;59888;55.814;37.132;2023-11-21T09:27:24;-4.06;50.56
71396;DHT22;59888;55.814;37.132;2023-11-21T09:29:52;-4.04;51.40
71396;DHT22;59888;55.814;37.132;2023-11-21T09:32:20;-3.95;50.93
71396;DHT22;59888;55.814;37.132;2023-11-21T09:34:49;-3.95;50.37
71396;DHT22;59888;55.814;37.132;2023-11-21T09:37:16;-3.93;50.30
71396;DHT22;59888;55.814;37.132;2023-11-21T09:39:43;-3.92;50.28
71396;DHT22;59888;55.814;37.132;2023-11-21T09:42:17;-3.92;49.63
71396;DHT22;59888;55.814;37.132;2023-11-21T09:45:08;-4.01;48.86
71396;DHT22;59888;55.814;37.132;2023-11-21T09:47:38;-4.06;49.85
71396;DHT22;59888;55.814;37.132;2023-11-21T09:50:06;-4.04;50.30
71396;DHT22;59888;55.814;37.132;2023-11-21T09:55:18;-3.95;50.19
71396;DHT22;59888;55.814;37.132;2023-11-21T09:57:47;-3.93;50.41
71396;DHT22;59888;55.814;37.132;2023-11-21T10:00:15;-3.92;49.51
71396;DHT22;59888;55.814;37.132;2023-11-21T10:02:45;-3.97;49.21
71396;DHT22;59888;55.814;37.132;2023-11-21T10:05:13;-3.98;50.13
71396;DHT22;59888;55.814;37.132;2023-11-21T10:07:40;-3.95;49.70
71396;DHT22;59888;55.814;37.132;2023-11-21T10:10:08;-3.91;49.63
71396;DHT22;59888;55.814;37.132;2023-11-21T10:12:35;-3.86;49.33
71396;DHT22;59888;55.814;37.132;2023-11-21T10:15:03;-3.79;49.48
71396;DHT22;59888;55.814;37.132;2023-11-21T10:17:38;-3.76;48.86
71396;DHT22;59888;55.814;37.132;2023-11-21T10:20:11;-3.77;49.24
71396;DHT22;59888;55.814;37.132;2023-11-21T10:22:43;-3.75;49.03
71396;DHT22;59888;55.814;37.132;2023-11-21T10:25:10;-3.74;49.32
71396;DHT22;59888;55.814;37.132;2023-11-21T10:27:39;-3.71;49.34
71396;DHT22;59888;55.814;37.132;2023-11-21T10:30:06;-3.74;49.01
71396;DHT22;59888;55.814;37.132;2023-11-21T10:32:33;-3.78;48.53
71396;DHT22;59888;55.814;37.132;2023-11-21T10:35:00;-3.85;48.91
71396;DHT22;59888;55.814;37.132;2023-11-21T10:37:29;-3.91;49.02
71396;DHT22;59888;55.814;37.132;2023-11-21T10:39:59;-3.93;48.37
71396;DHT22;59888;55.814;37.132;2023-11-21T10:42:25;-3.98;48.86
71396;DHT22;59888;55.814;37.132;2023-11-21T10:44:53;-4.00;48.42
71396;DHT22;59888;55.814;37.132;2023-11-21T10:47:19;-3.99;48.82
71396;DHT22;59888;55.814;37.132;2023-11-21T10:49:49;-4.04;49.20
71396;DHT22;59888;55.814;37.132;2023-11-21T10:52:19;-4.09;49.27
71396;DHT22;59888;55.814;37.132;2023-11-21T10:54:45;-4.05;48.94
71396;DHT22;59888;55.814;37.132;2023-11-21T10:57:14;-4.04;48.85
71396;DHT22;59888;55.814;37.132;2023-11-21T10:59:46;-4.00;48.96
71396;DHT22;59888;55.814;37.132;2023-11-21T11:02:23;-3.91;49.15
71396;DHT22;59888;55.814;37.132;2023-11-21T11:04:52;-3.91;48.79
71396;DHT22;59888;55.814;37.132;2023-11-21T11:07:21;-3.96;47.94
71396;DHT22;59888;55.814;37.132;2023-11-21T11:09:50;-4.05;48.46
71396;DHT22;59888;55.814;37.132;2023-11-21T11:12:16;-4.08;48.57
71396;DHT22;59888;55.814;37.132;2023-11-21T11:14:44;-4.15;48.26
71396;DHT22;59888;55.814;37.132;2023-11-21T11:17:10;-4.22;48.67
71396;DHT22;59888;55.814;37.132;2023-11-21T11:19:37;-4.31;48.35
71396;DHT22;59888;55.814;37.132;2023-11-21T11:25:38;-4.48;48.57
71396;DHT22;59888;55.814;37.132;2023-11-21T11:28:21;-4.54;48.38
71396;DHT22;59888;55.814;37.132;2023-11-21T11:31:05;-4.54;49.21
71396;DHT22;59888;55.814;37.132;2023-11-21T11:34:20;-4.45;49.60
71396;DHT22;59888;55.814;37.132;2023-11-21T11:36:36;-4.35;49.35
71396;DHT22;59888;55.814;37.132;2023-11-21T11:39:04;-4.36;49.07
71396;DHT22;59888;55.814;37.132;2023-11-21T11:41:50;-4.38;49.59
71396;DHT22;59888;55.814;37.132;2023-11-21T11:47:32;-4.38;49.88
71396;DHT22;59888;55.814;37.132;2023-11-21T11:50:11;-4.42;49.77
71396;DHT22;59888;55.814;37.132;2023-11-21T11:52:47;-4.46;49.50
71396;DHT22;59888;55.814;37.132;2023-11-21T11:55:14;-4.42;50.02
71396;DHT22;59888;55.814;37.132;2023-11-21T11:57:46;-4.32;50.22
71396;DHT22;59888;55.814;37.132;2023-11-21T12:00:15;-4.23;50.27
71396;DHT22;59888;55.814;37.132;2023-11-21T12:02:48;-4.10;50.41
71396;DHT22;59888;55.814;37.132;2023-11-21T12:05:16;-3.94;50.44
71396;DHT22;59888;55.814;37.132;2023-11-21T12:07:51;-3.87;49.90
71396;DHT22;59888;55.814;37.132;2023-11-21T12:12:54;-3.92;49.83
71396;DHT22;59888;55.814;37.132;2023-11-21T12:15:20;-3.92;49.98
71396;DHT22;59888;55.814;37.132;2023-11-21T12:17:48;-3.99;49.79
71396;DHT22;59888;55.814;37.132;2023-11-21T12:20:19;-4.05;49.76
71396;DHT22;59888;55.814;37.132;2023-11-21T12:22:50;-4.01;49.82
71396;DHT22;59888;55.814;37.132;2023-11-21T12:25:19;-4.02;49.58
71396;DHT22;59888;55.814;37.132;2023-11-21T12:27:46;-4.02;49.72
71396;DHT22;59888;55.814;37.132;2023-11-21T12:30:16;-4.06;49.33
71396;DHT22;59888;55.814;37.132;2023-11-21T12:32:44;-4.15;49.38
71396;DHT22;59888;55.814;37.132;2023-11-21T12:35:12;-4.28;49.23
71396;DHT22;59888;55.814;37.132;2023-11-21T12:37:39;-4.41;49.24
71396;DHT22;59888;55.814;37.132;2023-11-21T12:40:07;-4.46;49.48
71396;DHT22;59888;55.814;37.132;2023-11-21T12:42:39;-4.55;49.33
71396;DHT22;59888;55.814;37.132;2023-11-21T12:47:35;-4.61;49.53
71396;DHT22;59888;55.814;37.132;2023-11-21T12:50:02;-4.63;49.92
71396;DHT22;59888;55.814;37.132;2023-11-21T12:52:30;-4.64;49.98
71396;DHT22;59888;55.814;37.132;2023-11-21T12:54:55;-4.63;50.11
71396;DHT22;59888;55.814;37.132;2023-11-21T12:57:25;-4.52;50.05
71396;DHT22;59888;55.814;37.132;2023-11-21T12:59:58;-4.50;49.88
71396;DHT22;59888;55.814;37.132;2023-11-21T13:02:26;-4.59;49.36
71396;DHT22;59888;55.814;37.132;2023-11-21T13:04:53;-4.64;49.74
71396;DHT22;59888;55.814;37.132;2023-11-21T13:07:20;-4.70;49.47
71396;DHT22;59888;55.814;37.132;2023-11-21T13:09:52;-4.68;49.92
71396;DHT22;59888;55.814;37.132;2023-11-21T13:12:24;-4.66;49.94
71396;DHT22;59888;55.814;37.132;2023-11-21T13:14:50;-4.70;49.94
71396;DHT22;59888;55.814;37.132;2023-11-21T13:17:17;-4.76;49.79
71396;DHT22;59888;55.814;37.132;2023-11-21T13:19:44;-4.85;49.18
71396;DHT22;59888;55.814;37.132;2023-11-21T13:22:10;-4.90;49.33
71396;DHT22;59888;55.814;37.132;2023-11-21T13:24:36;-4.97;49.57
71396;DHT22;59888;55.814;37.132;2023-11-21T13:27:03;-4.96;49.75
71396;DHT22;59888;55.814;37.132;2023-11-21T13:29:29;-5.05;49.69
71396;DHT22;59888;55.814;37.132;2023-11-21T13:31:55;-5.15;49.66
71396;DHT22;59888;55.814;37.132;2023-11-21T13:34:21;-5.14;49.73
71396;DHT22;59888;55.814;37.132;2023-11-21T13:36:51;-5.17;49.82
71396;DHT22;59888;55.814;37.132;2023-11-21T13:39:24;-5.20;50.17
71396;DHT22;59888;55.814;37.132;2023-11-21T13:41:54;-5.27;50.14
71396;DHT22;59888;55.814;37.132;2023-11-21T13:44:20;-5.26;50.25
71396;DHT22;59888;55.814;37.132;2023-11-21T13:46:54;-5.19;50.42
71396;DHT22;59888;55.814;37.132;2023-11-21T13:49:22;-5.16;50.34
71396;DHT22;59888;55.814;37.132;2023-11-21T13:51:49;-5.25;50.33
71396;DHT22;59888;55.814;37.132;2023-11-21T13:54:18;-5.32;50.43
71396;DHT22;59888;55.814;37.132;2023-11-21T13:56:46;-5.31;50.62
71396;DHT22;59888;55.814;37.132;2023-11-21T13:59:12;-5.27;50.69
71396;DHT22;59888;55.814;37.132;2023-11-21T14:02:09;-5.25;50.56
71396;DHT22;59888;55.814;37.132;2023-11-21T14:04:46;-5.22;50.53
71396;DHT22;59888;55.814;37.132;2023-11-21T14:07:23;-5.18;50.59
71396;DHT22;59888;55.814;37.132;2023-11-21T14:10:02;-5.13;50.74
71396;DHT22;59888;55.814;37.132;2023-11-21T14:12:29;-5.09;50.63
71396;DHT22;59888;55.814;37.132;2023-11-21T14:15:00;-5.13;50.68
71396;DHT22;59888;55.814;37.132;2023-11-21T14:17:27;-5.20;50.71
71396;DHT22;59888;55.814;37.132;2023-11-21T14:19:53;-5.19;50.85
71396;DHT22;59888;55.814;37.132;2023-11-21T14:22:21;-5.17;50.88
71396;DHT22;59888;55.814;37.132;2023-11-21T14:24:47;-5.12;50.92
71396;DHT22;59888;55.814;37.132;2023-11-21T14:27:16;-5.15;50.88
71396;DHT22;59888;55.814;37.132;2023-11-21T14:29:42;-5.20;50.76
71396;DHT22;59888;55.814;37.132;2023-11-21T14:32:10;-5.15;50.80
71396;DHT22;59888;55.814;37.132;2023-11-21T14:34:36;-5.23;50.77
71396;DHT22;59888;55.814;37.132;2023-11-21T14:37:02;-5.28;50.66
71396;DHT22;59888;55.814;37.132;2023-11-21T14:39:28;-5.29;50.88
71396;DHT22;59888;55.814;37.132;2023-11-21T14:41:57;-5.28;50.65
71396;DHT22;59888;55.814;37.132;2023-11-21T14:44:23;-5.33;50.59
71396;DHT22;59888;55.814;37.132;2023-11-21T14:46:52;-5.42;50.66
71396;DHT22;59888;55.814;37.132;2023-11-21T14:49:20;-5.44;50.79
71396;DHT22;59888;55.814;37.132;2023-11-21T14:51:53;-5.43;50.83
71396;DHT22;59888;55.814;37.132;2023-11-21T14:54:28;-5.45;50.70
71396;DHT22;59888;55.814;37.132;2023-11-21T14:57:10;-5.39;50.66
71396;DHT22;59888;55.814;37.132;2023-11-21T14:59:48;-5.37;50.63
71396;DHT22;59888;55.814;37.132;2023-11-21T15:02:23;-5.30;50.47
71396;DHT22;59888;55.814;37.132;2023-11-21T15:05:10;-5.27;50.47
71396;DHT22;59888;55.814;37.132;2023-11-21T15:07:42;-5.25;50.16
71396;DHT22;59888;55.814;37.132;2023-11-21T15:10:09;-5.19;50.45
71396;DHT22;59888;55.814;37.132;2023-11-21T15:12:41;-5.15;50.28
71396;DHT22;59888;55.814;37.132;2023-11-21T15:15:08;-5.16;50.09
71396;DHT22;59888;55.814;37.132;2023-11-21T15:17:36;-5.13;50.28
71396;DHT22;59888;55.814;37.132;2023-11-21T15:20:03;-5.15;50.29
71396;DHT22;59888;55.814;37.132;2023-11-21T15:22:32;-5.14;50.29
71396;DHT22;59888;55.814;37.132;2023-11-21T15:24:58;-5.18;50.73
71396;DHT22;59888;55.814;37.132;2023-11-21T15:27:26;-5.23;50.79
71396;DHT22;59888;55.814;37.132;2023-11-21T15:29:53;-5.28;50.80
71396;DHT22;59888;55.814;37.132;2023-11-21T15:32:19;-5.23;50.83
71396;DHT22;59888;55.814;37.132;2023-11-21T15:34:45;-5.18;50.88
71396;DHT22;59888;55.814;37.132;2023-11-21T15:37:12;-5.10;50.66